Accueil
METAR-TAF:

METAR-TAF

Aéroports :

Base aérienne 126 Solenzara

Solenzara, France

latitude: 41-55N, longitude: 009-24E, altitude: 8 m

Observation

Le bulletin a été fait il y a 39 minutes, à 04:00 UTC
Vent 5 kt de ouest, variant entre ouest/sud-ouest et nord-ouest
Température 11°C
Humidité 37%
Pression 1022 hPa
Visibilité 10 km ou plus
pas de nuages en-dessous de 1500 mètres et pas de cumulonimbus.

METAR: LFKS 240400Z AUTO 27005KT 240V310 CAVOK 11/M03 Q1022

Heure: 05:39 (04:39 UTC)

Prévision

Le bulletin a été fait il y a 2 heures et 39 minutes, à 02:00 UTC
Prévision valable du 24 à 03 UTC au 25 à 03 UTC
Vent 5 kt de ouest
Visibilité 10 km ou plus
pas de nuages en-dessous de 1500 mètres et pas de cumulonimbus.
Temporairement
du 24 à 10 UTC au 24 à 16 UTC
Vent 10 kt de sud-est

TAF: LFKS 240200Z 2403/2503 27005KT CAVOK TEMPO 2410/2416 13010KT

Observations et prévisions météorologiques de plus de 4000 aéroports (messages METAR et TAF).

Les stations disponibles sont représentées par des disques jaunes et rouges sur la carte.

Passer la souris dessus pour voir le nom de la station.

Cliquer dessus pour voir les observations et prévisions météorologiques.

Pour changer de carte: cliquez sur les boutons verts avec une croix noire pour zoomer, sur le bouton vert avec un tiret pour effectuer un zoom arrière, ou sur les flèches vertes pour les cartes adjacentes.


METAR-TAF: